Time;durP1;ratioP1;P1;durP2;ratioP2;P2;SDS_P1;SDS_P2;PMS_P1;PMS_P2;Temp;Humidity;BMP_temperature;BMP_pressure;BME280_temperature;BME280_humidity;BME280_pressure;Samples;Min_cycle;Max_cycle;Signal;HPM_P1;HPM_P2
2023/01/06 00:00:45;;;;;;;3.33;0.93;;;;;;;4.83;77.48;98890.63;1685599;83;28191;-71
2023/01/06 00:03:12;;;;;;;1.80;0.88;;;;;;;4.83;77.72;98893.88;1666544;83;25614;-71
2023/01/06 00:05:38;;;;;;;2.70;0.90;;;;;;;4.87;77.89;98891.72;1662178;83;25466;-71
2023/01/06 00:08:04;;;;;;;2.58;1.20;;;;;;;4.91;77.73;98893.36;1713461;83;25821;-71
2023/01/06 00:10:37;;;;;;;2.33;0.95;;;;;;;4.90;77.56;98904.75;1661156;83;25495;-72
2023/01/06 00:13:04;;;;;;;3.08;1.40;;;;;;;4.93;77.65;98901.23;1661202;83;27319;-70
2023/01/06 00:15:32;;;;;;;3.60;1.85;;;;;;;4.92;77.51;98902.33;1713745;82;25563;-69
2023/01/06 00:17:58;;;;;;;3.42;1.60;;;;;;;4.92;77.96;98903.69;1663186;83;25569;-71
2023/01/06 00:20:24;;;;;;;6.33;2.58;;;;;;;4.93;78.10;98906.14;1689555;83;25794;-71
2023/01/06 00:22:51;;;;;;;2.95;1.30;;;;;;;4.90;77.86;98914.83;1661544;83;25799;-71
2023/01/06 00:25:17;;;;;;;4.83;1.70;;;;;;;4.88;77.82;98921.05;1662332;83;28080;-71
2023/01/06 00:27:44;;;;;;;5.47;2.45;;;;;;;4.86;77.93;98914.53;1666472;83;25680;-72
2023/01/06 00:30:12;;;;;;;4.17;2.10;;;;;;;4.83;77.98;98921.86;1689546;83;25535;-71
2023/01/06 00:32:38;;;;;;;3.90;2.20;;;;;;;4.83;78.24;98925.11;1713765;82;25785;-71
2023/01/06 00:35:05;;;;;;;5.25;2.02;;;;;;;4.82;78.22;98931.10;1661440;83;25624;-71
2023/01/06 00:37:31;;;;;;;6.22;2.80;;;;;;;4.80;78.02;98936.53;1685315;83;27232;-71
2023/01/06 00:39:58;;;;;;;5.35;1.62;;;;;;;4.75;77.97;98939.49;1690575;83;25675;-72
2023/01/06 00:42:24;;;;;;;4.83;1.92;;;;;;;4.74;77.79;98940.59;1671520;83;25518;-72
2023/01/06 00:44:51;;;;;;;5.65;1.50;;;;;;;4.73;77.34;98946.28;1671583;83;25759;-71
2023/01/06 00:47:18;;;;;;;3.67;1.82;;;;;;;4.72;77.04;98951.45;1689759;83;25625;-70
2023/01/06 00:49:45;;;;;;;2.75;1.60;;;;;;;4.72;76.85;98968.53;1719022;82;27438;-71
2023/01/06 00:52:12;;;;;;;5.37;2.60;;;;;;;4.75;77.07;98971.28;1690211;83;25451;-72
2023/01/06 00:54:38;;;;;;;8.75;3.17;;;;;;;4.74;76.19;98967.73;1694588;83;25610;-71
2023/01/06 00:57:06;;;;;;;3.98;2.35;;;;;;;4.70;76.01;98964.46;1666992;83;25636;-71
2023/01/06 00:59:33;;;;;;;4.17;1.82;;;;;;;4.66;75.54;98968.24;1666203;83;25608;-71
2023/01/06 01:01:59;;;;;;;3.92;1.30;;;;;;;4.64;76.18;98971.78;1667460;83;26401;-72
2023/01/06 01:04:26;;;;;;;2.95;1.25;;;;;;;4.58;75.82;98980.98;1690411;83;25667;-71
2023/01/06 01:06:53;;;;;;;2.42;1.07;;;;;;;4.55;75.76;98978.25;1666878;83;25434;-68
2023/01/06 01:09:24;;;;;;;2.90;1.30;;;;;;;4.54;76.21;98977.16;1686439;83;25900;-71
2023/01/06 01:12:10;;;;;;;2.58;1.15;;;;;;;4.52;76.46;98984.23;1667060;83;25677;-72
2023/01/06 01:14:52;;;;;;;2.08;1.55;;;;;;;4.47;76.19;98990.45;1669483;83;27382;-72
2023/01/06 01:17:28;;;;;;;2.52;1.30;;;;;;;4.46;76.08;98992.88;1690388;83;25690;-72
2023/01/06 01:20:03;;;;;;;1.87;1.47;;;;;;;4.39;75.71;98997.20;1718850;82;25640;-70
2023/01/06 01:22:39;;;;;;;5.25;1.67;;;;;;;4.42;75.89;98999.92;1668053;83;25684;-72
2023/01/06 01:25:14;;;;;;;6.45;2.20;;;;;;;4.41;75.00;99002.89;1690610;83;25438;-72
2023/01/06 01:27:49;;;;;;;3.40;1.30;;;;;;;4.42;75.33;99003.98;1690359;83;27310;-69
2023/01/06 01:30:20;;;;;;;6.80;2.17;;;;;;;4.43;75.27;99000.19;1690290;83;25440;-72
2023/01/06 01:32:46;;;;;;;3.98;1.82;;;;;;;4.46;75.69;99003.73;1718451;83;25675;-72
2023/01/06 01:35:14;;;;;;;3.22;1.80;;;;;;;4.42;75.54;99005.88;1718862;82;26662;-72
2023/01/06 01:37:40;;;;;;;5.55;2.30;;;;;;;4.37;75.72;99002.59;1690581;83;25703;-72
2023/01/06 01:40:08;;;;;;;3.27;1.52;;;;;;;4.35;75.53;99002.06;1718966;81;27408;-70
2023/01/06 01:42:34;;;;;;;6.67;2.33;;;;;;;4.29;75.23;98999.84;1690716;83;25465;-72
2023/01/06 01:45:23;;;;;;;7.50;2.98;;;;;;;4.26;75.81;98992.26;1666854;83;25432;-72
2023/01/06 01:48:16;;;;;;;5.28;1.82;;;;;;;4.21;75.92;99003.07;1666233;83;25739;-72
2023/01/06 01:50:47;;;;;;;4.12;1.98;;;;;;;4.17;76.02;99010.11;1718488;83;25689;-72
2023/01/06 01:53:27;;;;;;;3.98;2.35;;;;;;;4.11;76.22;99010.59;1690545;83;33519;-72
2023/01/06 01:55:57;;;;;;;5.40;2.67;;;;;;;4.04;76.06;99008.13;1690550;83;26010;-71
2023/01/06 01:58:38;;;;;;;4.28;2.58;;;;;;;3.98;76.38;99013.24;1718820;83;25647;-70
2023/01/06 02:01:07;;;;;;;5.83;2.55;;;;;;;3.92;76.43;99011.57;1690360;83;32340;-72
2023/01/06 02:03:33;;;;;;;6.85;2.83;;;;;;;3.85;76.47;99013.97;1691339;83;25601;-72
2023/01/06 02:06:04;;;;;;;6.28;2.77;;;;;;;3.85;76.53;99018.03;1718853;82;26698;-71
2023/01/06 02:09:00;;;;;;;8.25;4.80;;;;;;;3.84;76.43;99028.61;1714525;82;34862;-72
2023/01/06 02:11:29;;;;;;;6.03;2.77;;;;;;;3.87;76.65;99031.33;1718489;83;25420;-72
2023/01/06 02:14:15;;;;;;;6.08;2.58;;;;;;;3.89;76.99;99033.25;1690801;83;26464;-72
2023/01/06 02:17:14;;;;;;;4.58;2.20;;;;;;;3.90;77.00;99037.59;1690444;83;25679;-70
2023/01/06 02:20:35;;;;;;;4.20;2.85;;;;;;;3.86;76.57;99043.27;1748671;81;28217;-68
2023/01/06 02:23:24;;;;;;;4.78;3.10;;;;;;;3.84;76.44;99038.63;1723333;82;25692;-67
2023/01/06 02:26:24;;;;;;;3.87;2.10;;;;;;;3.82;76.83;99042.95;1744056;82;25744;-69
2023/01/06 02:29:24;;;;;;;5.50;2.90;;;;;;;3.79;76.80;99048.89;1748199;82;25770;-66
2023/01/06 02:31:58;;;;;;;6.78;2.42;;;;;;;3.76;77.01;99047.52;1748472;82;25460;-70
2023/01/06 02:34:49;;;;;;;7.78;3.20;;;;;;;3.72;77.22;99037.45;1748311;82;27367;-68
2023/01/06 02:37:44;;;;;;;12.55;5.87;;;;;;;3.70;77.01;99043.66;1723145;82;25690;-70
2023/01/06 02:40:51;;;;;;;12.37;4.85;;;;;;;3.66;76.96;99039.31;1722637;81;25812;-70
2023/01/06 02:43:26;;;;;;;6.75;2.83;;;;;;;3.57;76.69;99038.15;1714961;82;26691;-70
2023/01/06 02:46:19;;;;;;;11.48;4.53;;;;;;;3.55;76.62;99040.29;1715515;82;25457;-70
2023/01/06 02:49:13;;;;;;;5.47;2.22;;;;;;;3.54;76.75;99045.44;1739489;82;27557;-70
2023/01/06 02:51:48;;;;;;;4.50;1.80;;;;;;;3.55;76.67;99048.42;1715151;82;25637;-70
2023/01/06 02:54:28;;;;;;;6.03;2.40;;;;;;;3.52;76.48;99048.41;1739048;82;25523;-70
2023/01/06 02:57:03;;;;;;;7.03;3.42;;;;;;;3.52;76.51;99044.34;1718730;82;25661;-68
2023/01/06 02:59:35;;;;;;;5.62;2.00;;;;;;;3.50;76.52;99047.31;1634767;86;25817;-71
2023/01/06 03:02:03;;;;;;;4.78;1.95;;;;;;;3.45;76.24;99055.37;1634749;86;27529;-71
2023/01/06 03:04:34;;;;;;;3.87;1.92;;;;;;;3.37;76.41;99058.01;1613306;86;25950;-71
2023/01/06 03:07:03;;;;;;;6.90;2.62;;;;;;;3.33;76.54;99054.71;1635460;86;25701;-71
2023/01/06 03:09:33;;;;;;;5.90;2.52;;;;;;;3.25;76.83;99050.04;1657381;86;25746;-71
2023/01/06 03:12:04;;;;;;;5.37;2.02;;;;;;;3.17;76.69;99051.88;1657911;86;25473;-71
2023/01/06 03:14:47;;;;;;;5.72;2.33;;;;;;;3.06;76.55;99050.11;1653892;86;27604;-71
2023/01/06 03:17:14;;;;;;;6.25;2.05;;;;;;;2.94;76.92;99042.13;1634691;85;26088;-72
2023/01/06 03:19:41;;;;;;;3.60;2.10;;;;;;;2.85;77.08;99037.70;1657381;86;25748;-71
2023/01/06 03:22:09;;;;;;;5.17;2.05;;;;;;;2.81;77.17;99045.50;1634620;86;26219;-72
2023/01/06 03:24:37;;;;;;;4.83;1.98;;;;;;;2.76;77.20;99046.27;1657373;86;25741;-65
2023/01/06 03:27:04;;;;;;;3.92;1.62;;;;;;;2.71;77.23;99048.09;1613139;86;27321;-71
2023/01/06 03:29:30;;;;;;;4.10;2.35;;;;;;;2.67;77.26;99050.48;1634790;86;25725;-71
2023/01/06 03:32:05;;;;;;;6.58;2.58;;;;;;;2.66;77.20;99054.78;1635113;86;25756;-67
2023/01/06 03:34:43;;;;;;;5.78;2.65;;;;;;;2.66;77.24;99058.84;1634965;86;25836;-71
2023/01/06 03:37:54;;;;;;;9.28;4.72;;;;;;;2.65;77.32;99059.92;1710354;82;25409;-71
2023/01/06 03:40:39;;;;;;;8.80;5.03;;;;;;;2.60;77.39;99068.27;1740676;81;27330;-71
2023/01/06 03:43:11;;;;;;;7.85;4.75;;;;;;;2.54;77.59;99068.44;1676217;84;25723;-71
2023/01/06 03:46:15;;;;;;;7.78;4.85;;;;;;;2.47;77.85;99063.20;1706070;83;25715;-71
2023/01/06 03:49:02;;;;;;;8.00;4.45;;;;;;;2.42;77.99;99071.27;1702375;83;26447;-70
2023/01/06 03:51:54;;;;;;;5.47;4.25;;;;;;;2.35;78.02;99060.61;1675383;84;25481;-70
2023/01/06 03:54:44;;;;;;;7.25;4.03;;;;;;;2.30;78.15;99055.94;1703068;83;29584;-71
2023/01/06 03:57:15;;;;;;;9.10;3.47;;;;;;;2.24;78.25;99060.99;1703088;83;25967;-72
2023/01/06 03:59:52;;;;;;;6.08;2.62;;;;;;;2.19;78.41;99053.63;1698926;83;25611;-72
2023/01/06 04:02:20;;;;;;;5.80;2.37;;;;;;;2.18;78.38;99050.64;1674687;84;25925;-69
2023/01/06 04:05:12;;;;;;;5.40;2.50;;;;;;;2.20;78.46;99054.45;1651285;84;25467;-72
2023/01/06 04:07:40;;;;;;;7.72;3.15;;;;;;;2.23;78.34;99059.37;1628257;85;27468;-72
2023/01/06 04:10:07;;;;;;;6.17;2.87;;;;;;;2.23;78.23;99055.31;1628150;85;25864;-72
2023/01/06 04:12:39;;;;;;;5.00;2.35;;;;;;;2.23;78.40;99053.95;1605588;85;25721;-72
2023/01/06 04:15:19;;;;;;;3.70;2.10;;;;;;;2.22;78.53;99050.98;1630047;85;25783;-70
2023/01/06 04:17:47;;;;;;;3.87;1.90;;;;;;;2.18;78.42;99041.18;1628512;85;25753;-72
2023/01/06 04:20:24;;;;;;;3.83;1.92;;;;;;;2.13;78.62;99054.09;1627981;85;27397;-72
2023/01/06 04:22:54;;;;;;;4.75;1.92;;;;;;;2.11;78.63;99048.66;1650680;85;25748;-71
2023/01/06 04:25:20;;;;;;;5.85;2.72;;;;;;;2.09;78.73;99054.31;1628066;85;25650;-69
2023/01/06 04:27:47;;;;;;;4.90;2.90;;;;;;;2.04;78.62;99051.52;1628106;85;27385;-72
2023/01/06 04:30:18;;;;;;;5.20;3.10;;;;;;;1.99;78.67;99056.31;1650692;85;25519;-71
2023/01/06 04:32:46;;;;;;;4.53;2.67;;;;;;;1.94;78.68;99058.13;1670292;85;27010;-72
2023/01/06 04:35:20;;;;;;;5.30;3.17;;;;;;;1.93;78.85;99064.05;1584811;85;26421;-71
2023/01/06 04:37:46;;;;;;;9.78;4.85;;;;;;;1.95;78.91;99066.51;1674952;83;25686;-71
2023/01/06 04:40:12;;;;;;;7.33;4.55;;;;;;;1.99;78.91;99071.73;1703003;84;25784;-71
2023/01/06 04:45:23;;;;;;;20.80;8.65;;;;;;;2.03;79.15;99085.03;1668199;83;25628;-71
2023/01/06 04:47:49;;;;;;;23.60;11.53;;;;;;;2.08;79.47;99088.34;1639266;83;25837;-70
2023/01/06 04:50:15;;;;;;;22.10;10.55;;;;;;;2.13;79.62;99089.80;1685831;83;25687;-71
2023/01/06 04:52:41;;;;;;;22.10;11.55;;;;;;;2.17;79.83;99092.80;1661254;83;25960;-70
2023/01/06 04:55:08;;;;;;;16.95;8.20;;;;;;;2.20;79.76;99083.67;1660380;83;25643;-67
2023/01/06 04:57:34;;;;;;;13.28;7.20;;;;;;;2.10;79.43;99080.82;1686358;83;27423;-69
2023/01/06 05:00:01;;;;;;;14.90;6.75;;;;;;;2.07;79.65;99077.26;1682124;83;25444;-68
2023/01/06 05:02:27;;;;;;;12.00;7.00;;;;;;;2.02;79.68;99083.41;1702193;83;25639;-69
2023/01/06 05:04:56;;;;;;;14.78;7.67;;;;;;;2.02;79.81;99083.41;1700613;83;25734;-67
2023/01/06 05:07:30;;;;;;;16.85;8.70;;;;;;;2.09;80.17;99092.16;1683557;83;25404;-71
2023/01/06 05:09:56;;;;;;;17.90;8.83;;;;;;;2.18;80.18;99089.02;1672845;83;27305;-69
2023/01/06 05:12:22;;;;;;;21.20;11.83;;;;;;;2.29;80.11;99090.83;1697012;83;25917;-70
2023/01/06 05:14:49;;;;;;;17.40;9.70;;;;;;;2.38;80.06;99096.10;1695632;83;25625;-69
2023/01/06 05:17:15;;;;;;;20.08;11.00;;;;;;;2.49;80.11;99087.60;1696835;83;26596;-71
2023/01/06 05:19:43;;;;;;;27.52;13.85;;;;;;;2.54;80.15;99095.49;1695695;83;25629;-71
2023/01/06 05:22:10;;;;;;;16.50;9.60;;;;;;;2.62;80.33;99094.52;1697163;83;27571;-69
2023/01/06 05:24:37;;;;;;;18.65;10.93;;;;;;;2.66;79.67;99094.02;1672662;83;25631;-69
2023/01/06 05:27:04;;;;;;;23.50;13.28;;;;;;;2.66;80.06;99090.80;1673599;83;25505;-71
2023/01/06 05:29:30;;;;;;;22.05;12.30;;;;;;;2.71;80.04;99088.69;1707897;83;25656;-71
2023/01/06 05:31:57;;;;;;;21.60;12.43;;;;;;;2.71;79.57;99092.20;1672039;83;26927;-69
2023/01/06 05:34:24;;;;;;;24.30;12.05;;;;;;;2.61;79.35;99085.30;1649548;83;27160;-71
2023/01/06 05:36:50;;;;;;;20.05;11.35;;;;;;;2.57;79.86;99093.64;1672366;83;26240;-67
2023/01/06 05:39:16;;;;;;;22.50;11.48;;;;;;;2.60;80.13;99095.33;1683429;83;25605;-68
2023/01/06 05:41:43;;;;;;;19.15;11.50;;;;;;;2.62;80.36;99095.88;1713767;82;25672;-71
2023/01/06 05:44:09;;;;;;;18.15;9.95;;;;;;;2.68;80.27;99102.72;1727903;82;25672;-71
2023/01/06 05:46:35;;;;;;;20.30;10.93;;;;;;;2.72;80.28;99105.20;1678987;82;27957;-71
2023/01/06 05:49:02;;;;;;;21.27;11.60;;;;;;;2.75;80.40;99108.23;1688314;82;25601;-69
2023/01/06 05:51:28;;;;;;;22.05;11.57;;;;;;;2.83;80.28;99112.92;1702607;82;25499;-70
2023/01/06 05:53:55;;;;;;;23.15;11.68;;;;;;;2.91;80.44;99115.73;1707150;82;27863;-70
2023/01/06 05:56:23;;;;;;;24.25;13.48;;;;;;;2.97;80.23;99116.87;1684717;82;25689;-70
2023/01/06 05:58:52;;;;;;;21.45;12.25;;;;;;;3.06;80.48;99115.09;1705988;82;28745;-71
2023/01/06 06:01:22;;;;;;;21.62;9.88;;;;;;;3.01;80.21;99130.22;1728574;82;26003;-71
2023/01/06 06:03:50;;;;;;;19.77;10.72;;;;;;;2.97;80.03;99127.71;1709354;82;25669;-71
2023/01/06 06:06:18;;;;;;;17.95;10.72;;;;;;;2.91;80.43;99123.33;1657114;82;26311;-71
2023/01/06 06:08:44;;;;;;;17.62;10.88;;;;;;;2.92;80.61;99121.42;1679448;82;25797;-69
2023/01/06 06:11:13;;;;;;;14.00;8.63;;;;;;;2.85;80.35;99127.84;1689169;82;28060;-70
2023/01/06 06:13:49;;;;;;;15.28;8.28;;;;;;;2.81;80.81;99128.59;1736563;82;25926;-70
2023/01/06 06:16:18;;;;;;;15.15;8.05;;;;;;;2.85;80.82;99129.19;1704811;82;25685;-70
2023/01/06 06:18:51;;;;;;;12.95;7.22;;;;;;;2.85;80.82;99136.52;1704042;82;25721;-70
2023/01/06 06:21:21;;;;;;;12.23;6.92;;;;;;;2.82;80.80;99139.72;1680305;82;25734;-71
2023/01/06 06:23:48;;;;;;;12.98;7.17;;;;;;;2.82;80.54;99135.66;1711542;82;28139;-71
2023/01/06 06:26:15;;;;;;;18.17;9.88;;;;;;;2.81;80.79;99137.54;1700245;82;25807;-70
2023/01/06 06:28:41;;;;;;;19.15;10.03;;;;;;;2.85;80.89;99135.95;1732365;82;25564;-70
2023/01/06 06:31:16;;;;;;;21.07;10.13;;;;;;;2.86;80.87;99132.73;1712566;82;26309;-70
2023/01/06 06:33:43;;;;;;;20.32;11.18;;;;;;;2.91;81.26;99131.45;1709984;82;25612;-70
2023/01/06 06:36:17;;;;;;;25.92;11.30;;;;;;;2.96;81.03;99131.50;1704533;82;28431;-70
2023/01/06 06:38:44;;;;;;;22.13;11.38;;;;;;;2.97;80.89;99125.56;1706568;82;25661;-69
2023/01/06 06:41:11;;;;;;;26.87;13.15;;;;;;;3.00;80.94;99127.21;1702161;82;25628;-71
2023/01/06 06:43:38;;;;;;;30.48;13.00;;;;;;;2.98;80.88;99129.89;1704245;82;25802;-70
2023/01/06 06:46:05;;;;;;;29.20;11.95;;;;;;;2.94;80.76;99132.83;1683326;82;25605;-70
2023/01/06 06:48:31;;;;;;;25.08;10.50;;;;;;;2.87;80.75;99134.36;1698437;82;28360;-69
2023/01/06 06:51:08;;;;;;;20.50;9.98;;;;;;;2.84;81.02;99137.04;1676001;82;26759;-70
2023/01/06 06:53:35;;;;;;;21.77;9.60;;;;;;;2.84;80.85;99137.56;1707320;83;25889;-70
2023/01/06 06:56:04;;;;;;;17.92;8.93;;;;;;;2.84;80.93;99141.09;1722015;82;25797;-70
2023/01/06 06:58:31;;;;;;;22.02;11.53;;;;;;;2.91;81.05;99133.33;1713203;82;25729;-70
2023/01/06 07:00:57;;;;;;;24.43;14.93;;;;;;;3.01;80.85;99130.75;1728943;82;27531;-70
2023/01/06 07:03:24;;;;;;;20.20;10.90;;;;;;;3.04;80.23;99129.41;1687192;82;26079;-70
2023/01/06 07:05:52;;;;;;;18.60;9.03;;;;;;;3.11;80.16;99134.92;1685423;82;25753;-70
2023/01/06 07:08:18;;;;;;;18.05;8.45;;;;;;;3.22;80.27;99141.81;1730994;82;25769;-68
2023/01/06 07:10:44;;;;;;;14.03;8.43;;;;;;;3.27;79.79;99131.05;1683939;82;25774;-70
2023/01/06 07:13:12;;;;;;;13.83;7.80;;;;;;;3.19;79.08;99142.34;1723035;82;29468;-70
2023/01/06 07:15:38;;;;;;;16.40;9.10;;;;;;;3.18;79.62;99138.81;1676852;82;26106;-70
2023/01/06 07:18:05;;;;;;;15.15;7.87;;;;;;;3.25;79.67;99148.91;1713078;82;25691;-70
2023/01/06 07:20:35;;;;;;;15.32;7.40;;;;;;;3.25;79.65;99153.50;1684181;83;26030;-70
2023/01/06 07:23:01;;;;;;;9.85;5.45;;;;;;;3.23;79.64;99150.24;1705020;82;25614;-70
2023/01/06 07:25:28;;;;;;;12.55;5.92;;;;;;;3.20;79.37;99157.52;1713847;82;27464;-70
2023/01/06 07:27:56;;;;;;;15.98;8.33;;;;;;;3.10;78.87;99150.08;1687902;82;25483;-70
2023/01/06 07:30:24;;;;;;;10.13;5.60;;;;;;;3.09;79.48;99157.40;1712886;82;25612;-70
2023/01/06 07:32:51;;;;;;;17.50;7.15;;;;;;;3.13;79.40;99166.65;1684168;82;27350;-70
2023/01/06 07:35:18;;;;;;;7.45;4.92;;;;;;;3.06;78.16;99155.19;1656835;82;25666;-70
2023/01/06 07:37:45;;;;;;;9.33;5.20;;;;;;;2.98;78.18;99152.91;1694147;82;27476;-70
2023/01/06 07:40:12;;;;;;;6.35;4.10;;;;;;;3.01;78.74;99146.99;1709063;82;25449;-70
2023/01/06 07:42:38;;;;;;;11.78;5.33;;;;;;;3.11;78.95;99157.15;1689210;83;25501;-67
2023/01/06 07:45:10;;;;;;;14.07;5.30;;;;;;;3.25;78.81;99164.33;1681554;84;25651;-70
2023/01/06 07:47:34;;;;;;;14.65;7.53;;;;;;;3.36;78.79;99171.52;1687524;84;25624;-70
2023/01/06 07:50:01;;;;;;;233.82;86.17;;;;;;;3.40;78.35;99170.49;1702379;83;27244;-70
2023/01/06 07:52:28;;;;;;;35.63;15.25;;;;;;;3.41;78.32;99162.64;1654521;84;25728;-68
2023/01/06 07:54:58;;;;;;;12.33;6.53;;;;;;;3.38;77.98;99163.97;1681620;84;25712;-68
2023/01/06 07:57:27;;;;;;;10.53;5.10;;;;;;;3.33;77.68;99156.30;1680219;84;25475;-70
2023/01/06 07:59:54;;;;;;;12.03;6.40;;;;;;;3.29;77.83;99156.01;1681465;84;25474;-70
2023/01/06 08:02:22;;;;;;;8.35;4.83;;;;;;;3.31;78.32;99166.03;1656205;84;27406;-70
2023/01/06 08:04:49;;;;;;;12.85;5.55;;;;;;;3.24;77.63;99173.54;1655810;84;25784;-70
2023/01/06 08:07:16;;;;;;;17.98;6.92;;;;;;;3.18;77.93;99175.90;1677317;84;25613;-69
2023/01/06 08:09:42;;;;;;;24.40;11.70;;;;;;;3.21;78.43;99172.69;1682990;84;25621;-68
2023/01/06 08:12:08;;;;;;;15.93;7.87;;;;;;;3.27;78.19;99175.75;1662560;84;25672;-69
2023/01/06 08:14:35;;;;;;;23.77;11.45;;;;;;;3.31;77.94;99180.14;1684050;83;28040;-70
2023/01/06 08:17:01;;;;;;;13.18;7.28;;;;;;;3.39;78.26;99182.38;1654458;84;25473;-69
2023/01/06 08:19:27;;;;;;;20.65;8.95;;;;;;;3.50;78.27;99182.80;1680960;84;25679;-69
2023/01/06 08:21:53;;;;;;;24.32;10.15;;;;;;;3.53;77.61;99173.33;1659128;84;25768;-69
2023/01/06 08:24:20;;;;;;;29.70;12.40;;;;;;;3.51;77.51;99174.94;1658112;84;25663;-70
2023/01/06 08:26:46;;;;;;;18.65;8.60;;;;;;;3.51;77.63;99177.65;1680241;84;27841;-69
2023/01/06 08:29:12;;;;;;;23.12;8.10;;;;;;;3.53;77.66;99181.46;1657639;84;25502;-67
2023/01/06 08:31:38;;;;;;;56.85;18.95;;;;;;;3.49;77.23;99176.27;1654121;84;25724;-70
2023/01/06 08:34:04;;;;;;;130.60;39.10;;;;;;;3.47;77.47;99185.19;1638044;84;25723;-70
2023/01/06 08:36:31;;;;;;;31.97;12.30;;;;;;;3.49;77.70;99181.70;1660287;84;25553;-69
2023/01/06 08:38:57;;;;;;;217.28;49.77;;;;;;;3.51;77.49;99190.38;1660434;84;27442;-69
2023/01/06 08:41:23;;;;;;;111.30;29.72;;;;;;;3.54;77.84;99187.71;1653499;84;25634;-70
2023/01/06 08:43:49;;;;;;;99.60;26.73;;;;;;;3.56;77.65;99189.09;1716665;82;25920;-69
2023/01/06 08:46:19;;;;;;;35.40;11.35;;;;;;;3.57;77.16;99183.94;1719961;82;25784;-69
2023/01/06 08:48:47;;;;;;;51.50;15.53;;;;;;;3.50;76.96;99190.92;1703128;83;25811;-70
2023/01/06 08:51:18;;;;;;;19.32;9.55;;;;;;;3.52;77.55;99190.67;1681785;82;27570;-70
2023/01/06 08:53:44;;;;;;;;;;;;;;;3.54;77.41;99187.16;1706936;82;25747;-69
2023/01/06 08:56:15;;;;;;;84.55;25.97;;;;;;;3.53;77.35;99181.46;1730649;82;25486;-69
2023/01/06 08:58:41;;;;;;;23.57;9.70;;;;;;;3.47;77.46;99184.66;1702734;83;27062;-70
2023/01/06 09:01:18;;;;;;;18.12;7.85;;;;;;;3.39;77.36;99185.92;1679759;83;25727;-69
2023/01/06 09:03:44;;;;;;;40.83;15.18;;;;;;;3.36;77.72;99183.72;1703534;83;27393;-71
2023/01/06 09:06:12;;;;;;;50.52;19.57;;;;;;;3.36;77.74;99178.30;1681517;82;25742;-70
2023/01/06 09:08:38;;;;;;;84.52;29.48;;;;;;;3.37;77.95;99181.28;1706021;82;25634;-69
2023/01/06 09:11:10;;;;;;;58.87;18.40;;;;;;;3.42;78.12;99181.08;1673152;83;25809;-70
2023/01/06 09:13:36;;;;;;;32.25;11.12;;;;;;;3.46;77.91;99176.78;1680965;83;25494;-67
2023/01/06 09:16:09;;;;;;;43.73;19.40;;;;;;;3.53;78.10;99186.05;1679625;83;27601;-70
2023/01/06 09:18:36;;;;;;;28.32;15.18;;;;;;;3.56;78.30;99174.70;1680222;83;25679;-71
2023/01/06 09:21:03;;;;;;;25.08;12.75;;;;;;;3.63;78.35;99173.99;1702499;82;25687;-70
2023/01/06 09:23:30;;;;;;;20.50;10.00;;;;;;;3.67;78.37;99166.15;1695872;83;25636;-70
2023/01/06 09:25:57;;;;;;;13.18;6.87;;;;;;;3.69;78.46;99168.08;1709574;82;25785;-70
2023/01/06 09:28:25;;;;;;;19.35;9.33;;;;;;;3.67;78.37;99167.50;1709555;82;27418;-70
2023/01/06 09:30:51;;;;;;;21.50;9.05;;;;;;;3.71;78.64;99164.03;1705709;83;27232;-70
2023/01/06 09:33:17;;;;;;;13.95;8.40;;;;;;;3.75;78.53;99158.38;1715062;82;25579;-71
2023/01/06 09:35:45;;;;;;;18.35;9.08;;;;;;;3.83;78.46;99151.67;1677291;82;26499;-71
2023/01/06 09:38:13;;;;;;;19.42;8.73;;;;;;;3.90;78.51;99148.77;1703455;82;25650;-70
2023/01/06 09:41:18;;;;;;;14.63;7.35;;;;;;;4.04;78.81;99147.80;1681278;82;27331;-71
2023/01/06 09:44:10;;;;;;;12.33;7.00;;;;;;;4.20;78.20;99141.16;1736677;82;25673;-71
2023/01/06 09:46:40;;;;;;;13.70;7.53;;;;;;;4.31;77.86;99129.28;1706941;82;25745;-70
2023/01/06 09:49:18;;;;;;;9.60;5.40;;;;;;;4.43;77.88;99131.01;1706875;82;25581;-71
2023/01/06 09:51:44;;;;;;;13.60;6.78;;;;;;;4.55;77.61;99125.37;1740824;81;25688;-70
2023/01/06 09:54:21;;;;;;;13.45;5.92;;;;;;;4.66;77.36;99124.34;1686796;82;27615;-71
2023/01/06 09:56:56;;;;;;;9.88;4.80;;;;;;;4.75;76.94;99121.41;1735010;82;27147;-70
2023/01/06 09:59:31;;;;;;;15.58;8.83;;;;;;;4.93;76.37;99113.08;1734067;82;25659;-70
2023/01/06 10:01:59;;;;;;;12.65;6.80;;;;;;;5.10;75.99;99111.53;1718452;82;25638;-71
2023/01/06 10:04:29;;;;;;;12.63;6.78;;;;;;;5.31;76.26;99105.61;1740226;82;25407;-71
2023/01/06 10:07:23;;;;;;;12.75;6.03;;;;;;;5.65;76.07;99107.05;1718325;82;27614;-71
2023/01/06 10:10:19;;;;;;;8.43;5.12;;;;;;;5.93;74.89;99091.27;1718876;82;25844;-70
2023/01/06 10:13:10;;;;;;;10.95;5.40;;;;;;;6.21;73.38;99089.66;1717787;82;25634;-71
2023/01/06 10:15:53;;;;;;;7.65;4.30;;;;;;;6.35;73.99;99085.83;1740439;82;25983;-70
2023/01/06 10:18:31;;;;;;;16.27;9.25;;;;;;;6.58;72.81;99076.79;1719243;82;25669;-70
2023/01/06 10:21:33;;;;;;;17.07;10.82;;;;;;;6.74;72.62;99070.77;1655413;85;27544;-70
2023/01/06 10:24:38;;;;;;;10.63;6.72;;;;;;;6.84;71.50;99068.53;1655797;85;25491;-70
2023/01/06 10:27:27;;;;;;;14.95;7.15;;;;;;;6.98;72.21;99066.03;1677405;85;25513;-70
2023/01/06 10:29:56;;;;;;;22.07;7.05;;;;;;;7.10;71.31;99059.70;1678802;85;25773;-70
2023/01/06 10:32:27;;;;;;;14.38;7.22;;;;;;;7.20;71.61;99058.81;1679189;84;25764;-70
2023/01/06 10:34:54;;;;;;;9.48;5.83;;;;;;;7.26;71.23;99054.97;1626636;85;28172;-71
2023/01/06 10:37:25;;;;;;;11.73;6.50;;;;;;;7.34;71.65;99053.56;1657039;85;25877;-70
2023/01/06 10:40:05;;;;;;;14.60;9.00;;;;;;;7.45;70.04;99057.61;1656524;85;25555;-70
2023/01/06 10:43:02;;;;;;;14.40;7.40;;;;;;;7.42;69.96;99052.15;1652057;85;25460;-70
2023/01/06 10:45:41;;;;;;;11.45;6.30;;;;;;;7.55;69.67;99055.34;1656339;86;25766;-71
2023/01/06 10:48:16;;;;;;;67.72;29.20;;;;;;;7.76;69.49;99044.55;1612077;86;27342;-71
2023/01/06 10:50:42;;;;;;;396.12;110.15;;;;;;;8.07;69.49;99042.10;1655207;86;25484;-70
2023/01/06 10:53:11;;;;;;;143.68;38.08;;;;;;;8.41;69.85;99037.67;1633629;86;25713;-71
2023/01/06 10:55:53;;;;;;;65.67;18.23;;;;;;;8.75;69.27;99030.48;1588036;86;25846;-71
2023/01/06 10:58:45;;;;;;;16.15;9.05;;;;;;;9.04;68.75;99033.67;1664850;82;25671;-71
2023/01/06 11:01:24;;;;;;;14.40;8.83;;;;;;;9.23;65.70;99036.95;1722104;82;27556;-71
2023/01/06 11:04:10;;;;;;;20.12;12.00;;;;;;;9.34;67.06;99021.20;1679852;83;25952;-71
2023/01/06 11:06:45;;;;;;;11.73;7.25;;;;;;;9.46;65.57;99019.38;1725408;83;25623;-71
2023/01/06 11:09:38;;;;;;;16.73;8.53;;;;;;;9.45;64.31;99015.85;1722129;83;26547;-71
2023/01/06 11:12:19;;;;;;;35.55;12.15;;;;;;;9.52;65.31;99015.45;1701223;83;25828;-71
2023/01/06 11:14:59;;;;;;;100.30;26.97;;;;;;;9.58;63.86;99009.38;1699641;83;28198;-69
2023/01/06 11:17:27;;;;;;;103.15;28.67;;;;;;;9.84;66.01;99004.84;1721742;83;25400;-72
2023/01/06 11:20:17;;;;;;;82.02;24.63;;;;;;;10.26;65.24;99013.11;1701368;83;25641;-72
2023/01/06 11:22:44;;;;;;;13.80;8.18;;;;;;;10.62;64.68;99013.80;1722386;83;25890;-72
2023/01/06 11:25:29;;;;;;;13.75;9.03;;;;;;;10.88;61.88;99016.59;1675725;83;25634;-71
2023/01/06 11:28:18;;;;;;;56.63;18.73;;;;;;;11.09;63.19;99010.10;1721628;83;25845;-72
2023/01/06 11:30:56;;;;;;;18.60;8.20;;;;;;;11.41;58.99;99002.78;1725459;83;25700;-72
2023/01/06 11:33:25;;;;;;;17.52;8.58;;;;;;;11.41;58.99;99002.78;1686482;83;25658;-70
2023/01/06 11:35:53;;;;;;;11.95;5.72;;;;;;;11.57;59.44;99011.20;1699791;83;26945;-69
2023/01/06 11:38:21;;;;;;;16.12;8.98;;;;;;;11.56;57.07;99011.77;1678226;83;25684;-72
2023/01/06 11:40:50;;;;;;;11.08;7.10;;;;;;;11.65;60.44;99009.89;1700306;83;27488;-72
2023/01/06 11:43:24;;;;;;;14.35;7.25;;;;;;;11.91;60.18;99010.63;1707353;82;25638;-72
2023/01/06 11:46:01;;;;;;;14.00;7.92;;;;;;;12.00;56.19;99007.12;1716998;82;25706;-72
2023/01/06 11:48:48;;;;;;;11.48;7.47;;;;;;;12.01;58.79;98990.30;1719581;82;25614;-72
2023/01/06 11:51:16;;;;;;;19.80;12.60;;;;;;;12.05;57.59;98998.19;1740052;82;25644;-72
2023/01/06 11:53:47;;;;;;;24.70;12.53;;;;;;;11.75;57.93;98999.78;1695350;82;28137;-71
2023/01/06 11:56:17;;;;;;;11.85;6.28;;;;;;;11.41;58.41;98984.12;1737385;82;25684;-72
2023/01/06 11:59:07;;;;;;;17.95;7.67;;;;;;;10.89;57.20;98980.64;1694671;82;25684;-71
2023/01/06 12:01:41;;;;;;;20.57;8.40;;;;;;;10.73;59.63;98977.41;1740175;82;25755;-72